sensor_id;sensor_type;location;lat;lon;timestamp;pressure;altitude;pressure_sealevel;temperature;humidity
10261;BME280;5175;42.606;23.388;2023-09-07T00:01:51;94291.91;;;18.41;100.00
10261;BME280;5175;42.606;23.388;2023-09-07T00:04:18;94296.84;;;18.39;100.00
10261;BME280;5175;42.606;23.388;2023-09-07T00:06:47;94300.88;;;18.50;100.00
10261;BME280;5175;42.606;23.388;2023-09-07T00:09:15;94291.16;;;18.49;100.00
10261;BME280;5175;42.606;23.388;2023-09-07T00:11:43;94284.78;;;18.45;100.00
10261;BME280;5175;42.606;23.388;2023-09-07T00:14:10;94286.13;;;18.56;100.00
10261;BME280;5175;42.606;23.388;2023-09-07T00:16:37;94267.97;;;18.48;100.00
10261;BME280;5175;42.606;23.388;2023-09-07T00:19:03;94297.50;;;18.45;100.00
10261;BME280;5175;42.606;23.388;2023-09-07T00:21:30;94288.22;;;18.20;100.00
10261;BME280;5175;42.606;23.388;2023-09-07T00:23:58;94288.53;;;18.27;100.00
10261;BME280;5175;42.606;23.388;2023-09-07T00:26:29;94293.94;;;18.27;100.00
10261;BME280;5175;42.606;23.388;2023-09-07T00:28:56;94278.00;;;18.08;100.00
10261;BME280;5175;42.606;23.388;2023-09-07T00:31:22;94288.88;;;18.26;100.00
10261;BME280;5175;42.606;23.388;2023-09-07T00:33:49;94291.09;;;18.32;100.00
10261;BME280;5175;42.606;23.388;2023-09-07T00:36:16;94279.34;;;18.28;100.00
10261;BME280;5175;42.606;23.388;2023-09-07T00:38:43;94288.78;;;18.48;100.00
10261;BME280;5175;42.606;23.388;2023-09-07T00:41:12;94286.50;;;18.41;100.00
10261;BME280;5175;42.606;23.388;2023-09-07T00:43:39;94279.97;;;18.34;100.00
10261;BME280;5175;42.606;23.388;2023-09-07T00:46:06;94283.50;;;18.43;100.00
10261;BME280;5175;42.606;23.388;2023-09-07T00:48:33;94284.78;;;18.45;100.00
10261;BME280;5175;42.606;23.388;2023-09-07T00:51:00;94286.34;;;18.38;100.00
10261;BME280;5175;42.606;23.388;2023-09-07T00:53:27;94284.31;;;18.43;100.00
10261;BME280;5175;42.606;23.388;2023-09-07T00:55:54;94275.75;;;18.50;100.00
10261;BME280;5175;42.606;23.388;2023-09-07T00:58:23;94275.13;;;18.53;100.00
10261;BME280;5175;42.606;23.388;2023-09-07T01:00:50;94283.25;;;18.61;100.00
10261;BME280;5175;42.606;23.388;2023-09-07T01:03:17;94280.25;;;18.71;100.00
10261;BME280;5175;42.606;23.388;2023-09-07T01:05:47;94293.44;;;18.73;100.00
10261;BME280;5175;42.606;23.388;2023-09-07T01:08:21;94288.84;;;18.73;100.00
10261;BME280;5175;42.606;23.388;2023-09-07T01:10:49;94282.94;;;18.80;100.00
10261;BME280;5175;42.606;23.388;2023-09-07T01:13:17;94283.09;;;18.75;100.00
10261;BME280;5175;42.606;23.388;2023-09-07T01:15:46;94288.19;;;18.68;100.00
10261;BME280;5175;42.606;23.388;2023-09-07T01:18:13;94287.06;;;18.77;100.00
10261;BME280;5175;42.606;23.388;2023-09-07T01:20:41;94287.69;;;18.57;100.00
10261;BME280;5175;42.606;23.388;2023-09-07T01:23:11;94286.13;;;18.56;100.00
10261;BME280;5175;42.606;23.388;2023-09-07T01:25:39;94291.56;;;18.82;100.00
10261;BME280;5175;42.606;23.388;2023-09-07T01:28:07;94281.66;;;18.60;100.00
10261;BME280;5175;42.606;23.388;2023-09-07T01:30:35;94283.25;;;18.61;100.00
10261;BME280;5175;42.606;23.388;2023-09-07T01:33:02;94291.81;;;18.55;100.00
10261;BME280;5175;42.606;23.388;2023-09-07T01:35:30;94286.09;;;18.48;100.00
10261;BME280;5175;42.606;23.388;2023-09-07T01:37:58;94291.81;;;18.55;100.00
10261;BME280;5175;42.606;23.388;2023-09-07T01:40:26;94279.44;;;18.62;100.00
10261;BME280;5175;42.606;23.388;2023-09-07T01:42:52;94274.81;;;18.63;100.00
10261;BME280;5175;42.606;23.388;2023-09-07T01:45:19;94273.41;;;18.65;100.00
10261;BME280;5175;42.606;23.388;2023-09-07T01:47:47;94271.81;;;18.73;100.00
10261;BME280;5175;42.606;23.388;2023-09-07T01:50:14;94283.56;;;18.51;100.00
10261;BME280;5175;42.606;23.388;2023-09-07T01:52:41;94273.56;;;18.69;100.00
10261;BME280;5175;42.606;23.388;2023-09-07T01:55:08;94284.22;;;18.83;100.00
10261;BME280;5175;42.606;23.388;2023-09-07T01:57:36;94289.00;;;18.86;100.00
10261;BME280;5175;42.606;23.388;2023-09-07T02:00:04;94278.50;;;18.84;100.00
10261;BME280;5175;42.606;23.388;2023-09-07T02:02:31;94276.91;;;18.92;100.00
10261;BME280;5175;42.606;23.388;2023-09-07T02:04:58;94284.41;;;18.95;100.00
10261;BME280;5175;42.606;23.388;2023-09-07T02:07:24;94288.22;;;18.94;100.00
10261;BME280;5175;42.606;23.388;2023-09-07T02:09:51;94284.38;;;18.77;100.00
10261;BME280;5175;42.606;23.388;2023-09-07T02:12:18;94281.66;;;18.77;100.00
10261;BME280;5175;42.606;23.388;2023-09-07T02:14:46;94282.31;;;18.66;100.00
10261;BME280;5175;42.606;23.388;2023-09-07T02:17:13;94273.91;;;18.85;100.00
10261;BME280;5175;42.606;23.388;2023-09-07T02:19:43;94278.81;;;18.83;100.00
10261;BME280;5175;42.606;23.388;2023-09-07T02:22:09;94278.03;;;18.82;100.00
10261;BME280;5175;42.606;23.388;2023-09-07T02:24:36;94283.09;;;18.75;100.00
10261;BME280;5175;42.606;23.388;2023-09-07T02:27:03;94282.47;;;18.78;100.00
10261;BME280;5175;42.606;23.388;2023-09-07T02:29:30;94290.28;;;18.80;100.00
10261;BME280;5175;42.606;23.388;2023-09-07T02:31:58;94277.84;;;18.70;100.00
10261;BME280;5175;42.606;23.388;2023-09-07T02:34:25;94289.78;;;18.69;100.00
10261;BME280;5175;42.606;23.388;2023-09-07T02:36:51;94293.91;;;18.66;100.00
10261;BME280;5175;42.606;23.388;2023-09-07T02:39:18;94290.72;;;18.73;100.00
10261;BME280;5175;42.606;23.388;2023-09-07T02:41:45;94282.28;;;18.49;100.00
10261;BME280;5175;42.606;23.388;2023-09-07T02:44:12;94277.50;;;18.54;100.00
10261;BME280;5175;42.606;23.388;2023-09-07T02:46:38;94281.47;;;18.48;100.00
10261;BME280;5175;42.606;23.388;2023-09-07T02:49:06;94286.50;;;18.33;100.00
10261;BME280;5175;42.606;23.388;2023-09-07T02:51:33;94283.44;;;18.17;100.00
10261;BME280;5175;42.606;23.388;2023-09-07T02:54:01;94287.97;;;17.99;100.00
10261;BME280;5175;42.606;23.388;2023-09-07T02:56:29;94283.44;;;18.17;100.00
10261;BME280;5175;42.606;23.388;2023-09-07T02:58:56;94284.91;;;18.32;100.00
10261;BME280;5175;42.606;23.388;2023-09-07T03:01:23;94279.34;;;18.28;100.00
10261;BME280;5175;42.606;23.388;2023-09-07T03:03:50;94288.88;;;18.34;100.00
10261;BME280;5175;42.606;23.388;2023-09-07T03:06:18;94290.47;;;18.35;100.00
10261;BME280;5175;42.606;23.388;2023-09-07T03:08:45;94292.22;;;18.40;100.00
10261;BME280;5175;42.606;23.388;2023-09-07T03:11:12;94281.09;;;18.33;100.00
10261;BME280;5175;42.606;23.388;2023-09-07T03:13:38;94288.72;;;18.39;100.00
10261;BME280;5175;42.606;23.388;2023-09-07T03:16:05;94281.75;;;18.38;100.00
10261;BME280;5175;42.606;23.388;2023-09-07T03:18:33;94287.59;;;18.32;100.00
10261;BME280;5175;42.606;23.388;2023-09-07T03:21:01;94287.13;;;18.30;100.00
10261;BME280;5175;42.606;23.388;2023-09-07T03:23:30;94276.94;;;18.27;100.00
10261;BME280;5175;42.606;23.388;2023-09-07T03:25:57;94282.97;;;18.15;100.00
10261;BME280;5175;42.606;23.388;2023-09-07T03:28:24;94272.44;;;18.05;100.00
10261;BME280;5175;42.606;23.388;2023-09-07T03:30:51;94281.53;;;18.18;100.00
10261;BME280;5175;42.606;23.388;2023-09-07T03:33:18;94283.75;;;18.24;100.00
10261;BME280;5175;42.606;23.388;2023-09-07T03:35:45;94285.34;;;18.17;100.00
10261;BME280;5175;42.606;23.388;2023-09-07T03:38:12;94285.00;;;18.09;100.00
10261;BME280;5175;42.606;23.388;2023-09-07T03:40:41;94289.59;;;18.09;100.00
10261;BME280;5175;42.606;23.388;2023-09-07T03:43:08;94292.44;;;18.04;100.00
10261;BME280;5175;42.606;23.388;2023-09-07T03:45:35;94288.50;;;18.10;100.00
10261;BME280;5175;42.606;23.388;2023-09-07T03:48:02;94295.13;;;18.04;100.00
10261;BME280;5175;42.606;23.388;2023-09-07T03:50:29;94299.59;;;18.00;100.00
10261;BME280;5175;42.606;23.388;2023-09-07T03:52:56;94293.38;;;17.99;100.00
10261;BME280;5175;42.606;23.388;2023-09-07T03:55:23;94286.94;;;17.78;100.00
10261;BME280;5175;42.606;23.388;2023-09-07T03:57:51;94288.75;;;17.61;100.00
10261;BME280;5175;42.606;23.388;2023-09-07T04:00:18;94302.84;;;17.58;100.00
10261;BME280;5175;42.606;23.388;2023-09-07T04:02:45;94301.84;;;17.76;100.00
10261;BME280;5175;42.606;23.388;2023-09-07T04:05:12;94300.63;;;17.60;100.00
10261;BME280;5175;42.606;23.388;2023-09-07T04:07:38;94307.03;;;17.64;100.00
10261;BME280;5175;42.606;23.388;2023-09-07T04:10:06;94290.44;;;17.57;100.00
10261;BME280;5175;42.606;23.388;2023-09-07T04:12:32;94295.25;;;17.60;100.00
10261;BME280;5175;42.606;23.388;2023-09-07T04:15:01;94299.09;;;17.67;100.00
10261;BME280;5175;42.606;23.388;2023-09-07T04:17:29;94298.81;;;17.77;100.00
10261;BME280;5175;42.606;23.388;2023-09-07T04:19:56;94304.88;;;17.83;100.00
10261;BME280;5175;42.606;23.388;2023-09-07T04:22:22;94304.13;;;17.60;100.00
10261;BME280;5175;42.606;23.388;2023-09-07T04:24:49;94302.84;;;17.58;100.00
10261;BME280;5175;42.606;23.388;2023-09-07T04:27:16;94312.16;;;17.74;100.00
10261;BME280;5175;42.606;23.388;2023-09-07T04:29:42;94312.41;;;17.64;100.00
10261;BME280;5175;42.606;23.388;2023-09-07T04:32:10;94303.13;;;17.78;100.00
10261;BME280;5175;42.606;23.388;2023-09-07T04:34:37;94308.88;;;17.85;100.00
10261;BME280;5175;42.606;23.388;2023-09-07T04:37:04;94297.84;;;17.73;100.00
10261;BME280;5175;42.606;23.388;2023-09-07T04:39:31;94305.81;;;17.78;100.00
10261;BME280;5175;42.606;23.388;2023-09-07T04:41:58;94318.25;;;17.88;100.00
10261;BME280;5175;42.606;23.388;2023-09-07T04:44:25;94315.38;;;17.84;100.00
10261;BME280;5175;42.606;23.388;2023-09-07T04:46:54;94318.56;;;17.86;100.00
10261;BME280;5175;42.606;23.388;2023-09-07T04:49:22;94310.41;;;17.69;100.00
10261;BME280;5175;42.606;23.388;2023-09-07T04:51:49;94313.91;;;17.78;100.00
10261;BME280;5175;42.606;23.388;2023-09-07T04:54:18;94316.31;;;17.80;100.00
10261;BME280;5175;42.606;23.388;2023-09-07T04:56:45;94311.88;;;17.84;100.00
10261;BME280;5175;42.606;23.388;2023-09-07T04:59:12;94317.81;;;17.94;100.00
10261;BME280;5175;42.606;23.388;2023-09-07T05:01:39;94319.25;;;17.92;100.00
10261;BME280;5175;42.606;23.388;2023-09-07T05:04:06;94317.63;;;17.91;100.00
10261;BME280;5175;42.606;23.388;2023-09-07T05:06:34;94320.69;;;17.98;100.00
10261;BME280;5175;42.606;23.388;2023-09-07T05:09:02;94328.97;;;18.01;100.00
10261;BME280;5175;42.606;23.388;2023-09-07T05:11:29;94324.66;;;18.00;100.00
10261;BME280;5175;42.606;23.388;2023-09-07T05:13:56;94333.59;;;18.09;100.00
10261;BME280;5175;42.606;23.388;2023-09-07T05:16:23;94328.63;;;17.94;100.00
10261;BME280;5175;42.606;23.388;2023-09-07T05:18:49;94334.28;;;18.15;100.00
10261;BME280;5175;42.606;23.388;2023-09-07T05:21:16;94329.66;;;18.15;100.00
10261;BME280;5175;42.606;23.388;2023-09-07T05:23:44;94334.28;;;18.15;100.00
10261;BME280;5175;42.606;23.388;2023-09-07T05:26:11;94325.81;;;18.08;100.00
10261;BME280;5175;42.606;23.388;2023-09-07T05:28:39;94334.94;;;18.21;100.00
10261;BME280;5175;42.606;23.388;2023-09-07T05:31:06;94335.78;;;18.38;100.00
10261;BME280;5175;42.606;23.388;2023-09-07T05:33:33;94338.09;;;18.53;100.00
10261;BME280;5175;42.606;23.388;2023-09-07T05:35:59;94329.97;;;18.62;100.00
10261;BME280;5175;42.606;23.388;2023-09-07T05:38:27;94337.66;;;18.68;100.00
10261;BME280;5175;42.606;23.388;2023-09-07T05:40:55;94336.03;;;18.67;100.00
10261;BME280;5175;42.606;23.388;2023-09-07T05:43:22;94338.78;;;18.76;100.00
10261;BME280;5175;42.606;23.388;2023-09-07T05:45:49;94333.97;;;18.64;100.00
10261;BME280;5175;42.606;23.388;2023-09-07T05:48:15;94333.84;;;18.87;100.00
10261;BME280;5175;42.606;23.388;2023-09-07T05:50:43;94334.50;;;18.92;100.00
10261;BME280;5175;42.606;23.388;2023-09-07T05:53:11;94333.88;;;19.04;100.00
10261;BME280;5175;42.606;23.388;2023-09-07T05:55:37;94323.19;;;18.90;100.00
10261;BME280;5175;42.606;23.388;2023-09-07T05:58:06;94331.94;;;18.96;100.00
10261;BME280;5175;42.606;23.388;2023-09-07T06:00:34;94331.00;;;19.00;100.00
10261;BME280;5175;42.606;23.388;2023-09-07T06:03:01;94335.66;;;19.43;100.00
10261;BME280;5175;42.606;23.388;2023-09-07T06:05:28;94332.56;;;19.78;100.00
10261;BME280;5175;42.606;23.388;2023-09-07T06:07:55;94339.84;;;20.04;100.00
10261;BME280;5175;42.606;23.388;2023-09-07T06:10:22;94344.41;;;20.20;100.00
10261;BME280;5175;42.606;23.388;2023-09-07T06:12:49;94345.06;;;20.09;100.00
10261;BME280;5175;42.606;23.388;2023-09-07T06:15:17;94354.19;;;19.95;100.00
10261;BME280;5175;42.606;23.388;2023-09-07T06:17:44;94357.88;;;19.99;100.00
10261;BME280;5175;42.606;23.388;2023-09-07T06:20:11;94360.56;;;19.99;100.00
10261;BME280;5175;42.606;23.388;2023-09-07T06:22:38;94346.38;;;20.03;100.00
10261;BME280;5175;42.606;23.388;2023-09-07T06:25:05;94361.19;;;20.05;100.00
10261;BME280;5175;42.606;23.388;2023-09-07T06:27:32;94367.38;;;20.14;100.00
10261;BME280;5175;42.606;23.388;2023-09-07T06:29:59;94367.72;;;20.04;100.00
10261;BME280;5175;42.606;23.388;2023-09-07T06:32:28;94375.16;;;20.33;100.00
10261;BME280;5175;42.606;23.388;2023-09-07T06:34:55;94372.38;;;20.50;100.00
10261;BME280;5175;42.606;23.388;2023-09-07T06:37:21;94376.09;;;20.75;100.00
10261;BME280;5175;42.606;23.388;2023-09-07T06:39:49;94381.66;;;20.78;100.00
10261;BME280;5175;42.606;23.388;2023-09-07T06:42:16;94378.91;;;20.87;100.00
10261;BME280;5175;42.606;23.388;2023-09-07T06:44:43;94378.09;;;20.86;100.00
10261;BME280;5175;42.606;23.388;2023-09-07T06:47:10;94374.78;;;20.81;100.00
10261;BME280;5175;42.606;23.388;2023-09-07T06:49:39;94385.91;;;20.88;100.00
10261;BME280;5175;42.606;23.388;2023-09-07T06:52:05;94383.81;;;20.64;100.00
10261;BME280;5175;42.606;23.388;2023-09-07T06:54:32;94384.00;;;20.59;100.00
10261;BME280;5175;42.606;23.388;2023-09-07T06:56:59;94384.19;;;20.54;100.00
10261;BME280;5175;42.606;23.388;2023-09-07T06:59:25;94372.69;;;20.86;100.00
10261;BME280;5175;42.606;23.388;2023-09-07T07:01:52;94376.59;;;21.27;100.00
10261;BME280;5175;42.606;23.388;2023-09-07T07:04:19;94377.72;;;21.26;100.00
10261;BME280;5175;42.606;23.388;2023-09-07T07:06:47;94371.00;;;21.02;100.00
10261;BME280;5175;42.606;23.388;2023-09-07T07:09:14;94373.28;;;20.92;100.00
10261;BME280;5175;42.606;23.388;2023-09-07T07:11:40;94358.88;;;20.71;100.00
10261;BME280;5175;42.606;23.388;2023-09-07T07:14:08;94374.25;;;20.58;100.00
10261;BME280;5175;42.606;23.388;2023-09-07T07:16:36;94365.66;;;20.85;100.00
10261;BME280;5175;42.606;23.388;2023-09-07T07:19:03;94381.75;;;21.19;100.00
10261;BME280;5175;42.606;23.388;2023-09-07T07:21:30;94382.97;;;21.31;100.00
10261;BME280;5175;42.606;23.388;2023-09-07T07:23:58;94382.69;;;21.24;100.00
10261;BME280;5175;42.606;23.388;2023-09-07T07:26:24;94381.75;;;21.19;100.00
10261;BME280;5175;42.606;23.388;2023-09-07T07:28:51;94391.31;;;21.26;100.00
10261;BME280;5175;42.606;23.388;2023-09-07T07:31:18;94394.09;;;21.38;100.00
10261;BME280;5175;42.606;23.388;2023-09-07T07:33:46;94371.44;;;21.13;100.00
10261;BME280;5175;42.606;23.388;2023-09-07T07:36:14;94388.66;;;21.38;100.00
10261;BME280;5175;42.606;23.388;2023-09-07T07:38:41;94389.97;;;21.52;100.00
10261;BME280;5175;42.606;23.388;2023-09-07T07:41:09;94403.22;;;21.54;100.00
10261;BME280;5175;42.606;23.388;2023-09-07T07:43:35;94395.00;;;21.62;100.00
10261;BME280;5175;42.606;23.388;2023-09-07T07:46:02;94398.75;;;21.70;100.00
10261;BME280;5175;42.606;23.388;2023-09-07T07:48:29;94394.53;;;21.60;100.00
10261;BME280;5175;42.606;23.388;2023-09-07T07:50:56;94393.75;;;21.39;100.00
10261;BME280;5175;42.606;23.388;2023-09-07T07:53:22;94400.25;;;21.47;100.00
10261;BME280;5175;42.606;23.388;2023-09-07T07:55:50;94405.16;;;21.53;100.00
10261;BME280;5175;42.606;23.388;2023-09-07T07:58:18;94402.69;;;21.40;100.00
10261;BME280;5175;42.606;23.388;2023-09-07T08:00:44;94402.22;;;21.38;100.00
10261;BME280;5175;42.606;23.388;2023-09-07T08:03:13;94400.44;;;21.42;100.00
10261;BME280;5175;42.606;23.388;2023-09-07T08:05:40;94395.34;;;21.61;100.00
10261;BME280;5175;42.606;23.388;2023-09-07T08:08:06;94387.59;;;21.71;100.00
10261;BME280;5175;42.606;23.388;2023-09-07T08:10:34;94398.66;;;21.66;100.00
10261;BME280;5175;42.606;23.388;2023-09-07T08:13:02;94394.41;;;21.77;100.00
10261;BME280;5175;42.606;23.388;2023-09-07T08:15:31;94397.22;;;22.02;100.00
10261;BME280;5175;42.606;23.388;2023-09-07T08:17:58;94388.28;;;22.01;100.00
10261;BME280;5175;42.606;23.388;2023-09-07T08:20:25;94394.97;;;22.04;100.00
10261;BME280;5175;42.606;23.388;2023-09-07T08:22:52;94396.81;;;22.12;100.00
10261;BME280;5175;42.606;23.388;2023-09-07T08:25:19;94390.56;;;22.11;100.00
10261;BME280;5175;42.606;23.388;2023-09-07T08:27:45;94388.22;;;22.10;100.00
10261;BME280;5175;42.606;23.388;2023-09-07T08:30:15;94383.56;;;22.10;100.00
10261;BME280;5175;42.606;23.388;2023-09-07T08:32:43;94380.75;;;22.19;100.00
10261;BME280;5175;42.606;23.388;2023-09-07T08:35:11;94385.66;;;22.37;100.00
10261;BME280;5175;42.606;23.388;2023-09-07T08:37:39;94380.94;;;22.47;100.00
10261;BME280;5175;42.606;23.388;2023-09-07T08:40:07;94380.41;;;22.65;100.00
10261;BME280;5175;42.606;23.388;2023-09-07T08:42:35;94386.22;;;22.88;88.87
10261;BME280;5175;42.606;23.388;2023-09-07T08:45:04;94384.16;;;22.97;90.53
10261;BME280;5175;42.606;23.388;2023-09-07T08:47:33;94389.94;;;23.08;87.84
10261;BME280;5175;42.606;23.388;2023-09-07T08:50:02;94384.34;;;23.28;89.75
10261;BME280;5175;42.606;23.388;2023-09-07T08:52:32;94391.16;;;23.46;83.84
10261;BME280;5175;42.606;23.388;2023-09-07T08:54:58;94389.63;;;23.61;89.52
10261;BME280;5175;42.606;23.388;2023-09-07T08:57:26;94376.75;;;23.46;73.95
10261;BME280;5175;42.606;23.388;2023-09-07T08:59:56;94383.53;;;23.52;74.68
10261;BME280;5175;42.606;23.388;2023-09-07T09:02:22;94382.59;;;23.60;74.37
10261;BME280;5175;42.606;23.388;2023-09-07T09:04:50;94382.50;;;23.32;73.05
10261;BME280;5175;42.606;23.388;2023-09-07T09:07:19;94381.38;;;23.45;73.34
10261;BME280;5175;42.606;23.388;2023-09-07T09:09:46;94391.81;;;23.55;73.71
10261;BME280;5175;42.606;23.388;2023-09-07T09:12:13;94386.84;;;23.45;75.55
10261;BME280;5175;42.606;23.388;2023-09-07T09:14:42;94378.25;;;23.71;76.08
10261;BME280;5175;42.606;23.388;2023-09-07T09:17:11;94383.88;;;23.50;75.91
10261;BME280;5175;42.606;23.388;2023-09-07T09:19:38;94384.09;;;23.45;76.97
10261;BME280;5175;42.606;23.388;2023-09-07T09:22:04;94381.22;;;23.66;77.00
10261;BME280;5175;42.606;23.388;2023-09-07T09:24:34;94377.78;;;23.41;79.63
10261;BME280;5175;42.606;23.388;2023-09-07T09:27:00;94372.97;;;23.50;79.97
10261;BME280;5175;42.606;23.388;2023-09-07T09:29:27;94375.25;;;23.48;77.48
10261;BME280;5175;42.606;23.388;2023-09-07T09:31:54;94369.25;;;23.43;70.90
10261;BME280;5175;42.606;23.388;2023-09-07T09:34:21;94374.97;;;23.14;76.77
10261;BME280;5175;42.606;23.388;2023-09-07T09:36:48;94378.34;;;23.23;72.83
10261;BME280;5175;42.606;23.388;2023-09-07T09:39:22;94369.00;;;23.36;76.08
10261;BME280;5175;42.606;23.388;2023-09-07T09:41:52;94368.22;;;23.47;74.58
10261;BME280;5175;42.606;23.388;2023-09-07T09:44:21;94369.94;;;23.40;72.75
10261;BME280;5175;42.606;23.388;2023-09-07T09:46:51;94363.97;;;23.62;70.00
10261;BME280;5175;42.606;23.388;2023-09-07T09:49:20;94362.44;;;23.77;68.28
10261;BME280;5175;42.606;23.388;2023-09-07T09:51:51;94375.63;;;24.02;63.46
10261;BME280;5175;42.606;23.388;2023-09-07T09:54:18;94372.06;;;24.14;62.28
10261;BME280;5175;42.606;23.388;2023-09-07T09:56:45;94369.13;;;24.07;65.27
10261;BME280;5175;42.606;23.388;2023-09-07T09:59:14;94368.06;;;24.23;63.92
10261;BME280;5175;42.606;23.388;2023-09-07T10:01:43;94371.75;;;24.31;63.63
10261;BME280;5175;42.606;23.388;2023-09-07T10:04:12;94356.66;;;24.06;63.55
10261;BME280;5175;42.606;23.388;2023-09-07T10:06:50;94361.19;;;24.02;65.04
10261;BME280;5175;42.606;23.388;2023-09-07T10:09:19;94353.34;;;24.12;62.09
10261;BME280;5175;42.606;23.388;2023-09-07T10:11:51;94357.03;;;24.20;61.53
10261;BME280;5175;42.606;23.388;2023-09-07T10:14:20;94348.53;;;24.37;63.01
10261;BME280;5175;42.606;23.388;2023-09-07T10:16:48;94344.31;;;24.55;61.98
10261;BME280;5175;42.606;23.388;2023-09-07T10:19:15;94350.03;;;24.66;60.03
10261;BME280;5175;42.606;23.388;2023-09-07T10:21:42;94336.59;;;24.57;63.97
10261;BME280;5175;42.606;23.388;2023-09-07T10:24:09;94346.97;;;24.67;60.43
10261;BME280;5175;42.606;23.388;2023-09-07T10:26:36;94339.22;;;24.85;59.58
10261;BME280;5175;42.606;23.388;2023-09-07T10:29:03;94338.97;;;24.90;58.57
10261;BME280;5175;42.606;23.388;2023-09-07T10:31:32;94332.94;;;25.00;62.29
10261;BME280;5175;42.606;23.388;2023-09-07T10:34:08;94340.75;;;25.17;57.73
10261;BME280;5175;42.606;23.388;2023-09-07T10:36:36;94339.31;;;25.23;56.18
10261;BME280;5175;42.606;23.388;2023-09-07T10:39:04;94325.09;;;24.99;59.46
10261;BME280;5175;42.606;23.388;2023-09-07T10:41:41;94331.44;;;25.03;59.94
10261;BME280;5175;42.606;23.388;2023-09-07T10:44:09;94325.72;;;25.08;59.91
10261;BME280;5175;42.606;23.388;2023-09-07T10:46:39;94329.41;;;25.00;58.13
10261;BME280;5175;42.606;23.388;2023-09-07T10:49:07;94332.28;;;24.87;58.44
10261;BME280;5175;42.606;23.388;2023-09-07T10:51:46;94344.31;;;24.86;59.67
10261;BME280;5175;42.606;23.388;2023-09-07T10:54:14;94336.66;;;24.61;61.09
10261;BME280;5175;42.606;23.388;2023-09-07T10:56:43;94338.25;;;24.46;62.04
10261;BME280;5175;42.606;23.388;2023-09-07T10:59:10;94342.19;;;24.33;60.69
10261;BME280;5175;42.606;23.388;2023-09-07T11:01:38;94335.94;;;24.33;63.37
10261;BME280;5175;42.606;23.388;2023-09-07T11:04:05;94342.88;;;24.30;60.76
10261;BME280;5175;42.606;23.388;2023-09-07T11:06:34;94341.13;;;24.22;61.17
10261;BME280;5175;42.606;23.388;2023-09-07T11:09:02;94336.53;;;24.10;61.39
10261;BME280;5175;42.606;23.388;2023-09-07T11:11:31;94337.34;;;23.99;62.62
10261;BME280;5175;42.606;23.388;2023-09-07T11:13:58;94334.44;;;23.92;62.29
10261;BME280;5175;42.606;23.388;2023-09-07T11:16:26;94327.75;;;23.89;62.80
10261;BME280;5175;42.606;23.388;2023-09-07T11:18:54;94334.97;;;23.97;64.81
10261;BME280;5175;42.606;23.388;2023-09-07T11:21:22;94331.97;;;23.87;65.58
10261;BME280;5175;42.606;23.388;2023-09-07T11:23:50;94332.41;;;23.89;65.26
10261;BME280;5175;42.606;23.388;2023-09-07T11:26:17;94334.81;;;23.90;65.43
10261;BME280;5175;42.606;23.388;2023-09-07T11:28:45;94322.19;;;23.86;65.75
10261;BME280;5175;42.606;23.388;2023-09-07T11:31:12;94325.09;;;23.77;66.99
10261;BME280;5175;42.606;23.388;2023-09-07T11:33:37;94324.78;;;23.94;66.42
10261;BME280;5175;42.606;23.388;2023-09-07T11:36:06;94330.91;;;23.91;66.93
10261;BME280;5175;42.606;23.388;2023-09-07T11:38:36;94327.03;;;23.77;66.59
10261;BME280;5175;42.606;23.388;2023-09-07T11:41:03;94328.72;;;23.97;66.34
10261;BME280;5175;42.606;23.388;2023-09-07T11:43:30;94327.19;;;23.84;66.85
10261;BME280;5175;42.606;23.388;2023-09-07T11:45:56;94332.56;;;23.80;64.63
10261;BME280;5175;42.606;23.388;2023-09-07T11:48:23;94325.59;;;23.39;66.94
10261;BME280;5175;42.606;23.388;2023-09-07T11:50:50;94319.69;;;23.25;68.48
10261;BME280;5175;42.606;23.388;2023-09-07T11:53:18;94320.63;;;23.05;68.61
10261;BME280;5175;42.606;23.388;2023-09-07T11:55:45;94319.72;;;23.01;67.94
10261;BME280;5175;42.606;23.388;2023-09-07T11:58:11;94315.47;;;23.28;66.36
10261;BME280;5175;42.606;23.388;2023-09-07T12:00:38;94309.09;;;23.36;67.84
10261;BME280;5175;42.606;23.388;2023-09-07T12:03:07;94311.75;;;23.60;67.18
10261;BME280;5175;42.606;23.388;2023-09-07T12:05:33;94314.66;;;23.95;65.08
10261;BME280;5175;42.606;23.388;2023-09-07T12:08:01;94310.41;;;24.25;65.42
10261;BME280;5175;42.606;23.388;2023-09-07T12:10:29;94307.34;;;24.42;63.36
10261;BME280;5175;42.606;23.388;2023-09-07T12:12:56;94310.06;;;24.42;61.63
10261;BME280;5175;42.606;23.388;2023-09-07T12:15:22;94304.88;;;24.53;64.85
10261;BME280;5175;42.606;23.388;2023-09-07T12:17:49;94296.78;;;24.72;64.19
10261;BME280;5175;42.606;23.388;2023-09-07T12:20:19;94300.19;;;25.00;64.63
10261;BME280;5175;42.606;23.388;2023-09-07T12:22:46;94296.19;;;25.13;64.04
10261;BME280;5175;42.606;23.388;2023-09-07T12:25:14;94300.09;;;25.31;64.48
10261;BME280;5175;42.606;23.388;2023-09-07T12:27:42;94307.69;;;25.22;61.32
10261;BME280;5175;42.606;23.388;2023-09-07T12:30:11;94311.13;;;25.19;60.54
10261;BME280;5175;42.606;23.388;2023-09-07T12:32:38;94309.16;;;25.01;60.01
10261;BME280;5175;42.606;23.388;2023-09-07T12:35:06;94305.97;;;24.99;60.05
10261;BME280;5175;42.606;23.388;2023-09-07T12:37:34;94306.63;;;24.76;60.06
10261;BME280;5175;42.606;23.388;2023-09-07T12:40:01;94307.00;;;24.44;61.66
10261;BME280;5175;42.606;23.388;2023-09-07T12:42:30;94314.91;;;24.49;61.77
10261;BME280;5175;42.606;23.388;2023-09-07T12:44:58;94316.84;;;24.17;64.09
10261;BME280;5175;42.606;23.388;2023-09-07T12:47:25;94306.38;;;24.19;67.07
10261;BME280;5175;42.606;23.388;2023-09-07T12:49:51;94315.00;;;24.52;62.21
10261;BME280;5175;42.606;23.388;2023-09-07T12:52:18;94320.00;;;24.66;61.64
10261;BME280;5175;42.606;23.388;2023-09-07T12:54:45;94315.19;;;24.91;58.91